createdAt,value
2018-08-24T00:02:05.171Z,85.98
2018-08-24T00:04:33.301Z,85.80
2018-08-24T00:07:01.416Z,86.26
2018-08-24T00:09:30.747Z,86.15
2018-08-24T00:11:58.860Z,86.60
2018-08-24T00:14:26.975Z,87.34
2018-08-24T00:16:55.068Z,87.15
2018-08-24T00:19:23.168Z,87.44
2018-08-24T00:21:51.278Z,88.03
2018-08-24T00:24:19.380Z,87.55
2018-08-24T00:26:47.495Z,87.31
2018-08-24T00:29:15.619Z,87.43
2018-08-24T00:31:43.790Z,87.96
2018-08-24T00:34:11.864Z,88.12
2018-08-24T00:36:39.963Z,87.51
2018-08-24T00:39:08.719Z,87.23
2018-08-24T00:41:36.997Z,88.18
2018-08-24T00:44:05.131Z,88.00
2018-08-24T00:46:33.237Z,87.19
2018-08-24T00:49:01.895Z,87.15
2018-08-24T00:51:29.999Z,87.92
2018-08-24T00:53:58.118Z,88.12
2018-08-24T00:56:26.212Z,88.25
2018-08-24T00:58:54.322Z,87.83
2018-08-24T01:01:22.836Z,87.71
2018-08-24T01:03:50.967Z,87.78
2018-08-24T01:06:24.901Z,87.97
2018-08-24T01:08:53.312Z,88.11
2018-08-24T01:11:25.570Z,88.20
2018-08-24T01:13:53.809Z,88.38
2018-08-24T01:16:27.308Z,88.04
2018-08-24T01:18:55.417Z,88.46
2018-08-24T01:21:23.517Z,87.85
2018-08-24T01:23:51.898Z,87.68
2018-08-24T01:26:22.027Z,87.74
2018-08-24T01:28:50.848Z,87.57
2018-08-24T01:31:18.959Z,87.15
2018-08-24T01:33:47.457Z,86.93
2018-08-24T01:36:15.581Z,87.07
2018-08-24T01:38:43.720Z,86.54
2018-08-24T01:41:11.835Z,86.44
2018-08-24T01:43:40.653Z,85.87
2018-08-24T01:46:11.340Z,87.56
2018-08-24T01:48:40.236Z,87.54
2018-08-24T01:51:08.363Z,88.64
2018-08-24T01:53:36.488Z,87.70
2018-08-24T01:56:04.661Z,88.51
2018-08-24T01:58:33.672Z,89.08
2018-08-24T02:01:01.813Z,89.27
2018-08-24T02:03:29.926Z,89.05
2018-08-24T02:06:03.884Z,88.75
2018-08-24T02:08:31.988Z,88.90
2018-08-24T02:11:00.132Z,88.47
2018-08-24T02:13:33.727Z,88.99
2018-08-24T02:16:01.840Z,88.98
2018-08-24T02:18:36.541Z,89.09
2018-08-24T02:21:10.304Z,88.56
2018-08-24T02:23:39.042Z,88.95
2018-08-24T02:26:08.012Z,89.25
2018-08-24T02:28:36.196Z,89.94
2018-08-24T02:31:04.790Z,90.07
2018-08-24T02:33:39.440Z,89.87
2018-08-24T02:36:08.696Z,90.25
2018-08-24T02:38:41.649Z,90.69
2018-08-24T02:41:09.885Z,89.74
2018-08-24T02:43:37.979Z,89.82
2018-08-24T02:46:06.259Z,89.88
2018-08-24T02:48:35.247Z,89.11
2018-08-24T02:51:03.369Z,89.33
2018-08-24T02:53:31.462Z,89.28
2018-08-24T02:55:59.561Z,89.72
2018-08-24T02:58:27.677Z,89.94
2018-08-24T03:00:56.073Z,90.00
2018-08-24T03:03:24.536Z,90.67
2018-08-24T03:05:52.623Z,91.27
2018-08-24T03:08:20.779Z,91.33
2018-08-24T03:10:48.833Z,91.41
2018-08-24T03:13:16.928Z,91.16
2018-08-24T03:15:45.136Z,90.22
2018-08-24T03:18:13.764Z,90.12
2018-08-24T03:20:41.910Z,89.84
2018-08-24T03:23:09.996Z,89.58
2018-08-24T03:25:38.092Z,89.57
2018-08-24T03:28:06.683Z,88.75
2018-08-24T03:30:34.796Z,88.70
2018-08-24T03:33:02.936Z,89.06
2018-08-24T03:35:32.113Z,88.52
2018-08-24T03:38:00.212Z,89.07
2018-08-24T03:40:28.328Z,88.91
2018-08-24T03:42:56.463Z,89.36
2018-08-24T03:45:24.572Z,89.28
2018-08-24T03:47:52.695Z,89.18
2018-08-24T03:50:20.849Z,88.47
2018-08-24T03:52:49.035Z,88.22
2018-08-24T03:55:17.418Z,88.75
2018-08-24T03:57:46.132Z,89.04
2018-08-24T04:00:16.614Z,89.47
2018-08-24T04:02:45.591Z,89.58
2018-08-24T04:05:14.085Z,89.33
2018-08-24T04:07:42.995Z,88.80
2018-08-24T04:10:11.229Z,89.31
2018-08-24T04:12:39.415Z,89.09
2018-08-24T04:15:08.235Z,89.18
2018-08-24T04:17:41.926Z,90.25
2018-08-24T04:20:10.044Z,90.09
2018-08-24T04:22:39.177Z,90.76
2018-08-24T04:25:07.869Z,89.41
2018-08-24T04:27:36.027Z,88.14
2018-08-24T04:30:04.268Z,87.11
2018-08-24T04:32:32.406Z,86.24
2018-08-24T04:35:00.593Z,85.63
2018-08-24T04:37:28.617Z,86.14
2018-08-24T04:39:56.743Z,85.69
2018-08-24T04:42:24.871Z,85.87
2018-08-24T04:44:52.984Z,86.33
2018-08-24T04:47:21.766Z,86.04
2018-08-24T04:49:49.910Z,85.95
2018-08-24T04:52:18.042Z,85.57
2018-08-24T04:54:47.289Z,84.83
2018-08-24T04:57:15.442Z,84.48
2018-08-24T04:59:44.159Z,84.21
2018-08-24T05:02:12.769Z,83.80
2018-08-24T05:04:40.898Z,83.86
2018-08-24T05:07:10.044Z,83.84
2018-08-24T05:09:38.139Z,83.20
2018-08-24T05:12:06.253Z,82.78
2018-08-24T05:14:34.352Z,82.43
2018-08-24T05:17:02.460Z,81.55
2018-08-24T05:19:30.649Z,80.94
2018-08-24T05:21:58.984Z,79.94
2018-08-24T05:24:27.084Z,80.08
2018-08-24T05:26:55.212Z,80.79
2018-08-24T05:29:23.324Z,79.93
2018-08-24T05:31:51.451Z,79.23
2018-08-24T05:34:19.662Z,80.28
2018-08-24T05:36:47.771Z,79.63
2018-08-24T05:39:15.890Z,79.73
2018-08-24T05:41:44.015Z,78.96
2018-08-24T05:44:12.136Z,78.11
2018-08-24T05:46:40.255Z,78.17
2018-08-24T05:49:08.395Z,78.48
2018-08-24T05:51:36.507Z,78.48
2018-08-24T05:54:04.630Z,78.42
2018-08-24T05:56:33.117Z,77.91
2018-08-24T05:59:01.539Z,77.16
2018-08-24T06:01:29.680Z,77.94
2018-08-24T06:03:57.791Z,77.21
2018-08-24T06:06:26.807Z,76.27
2018-08-24T06:09:00.241Z,76.75
2018-08-24T06:11:28.379Z,76.45
2018-08-24T06:13:56.835Z,75.44
2018-08-24T06:16:24.981Z,75.37
2018-08-24T06:18:53.255Z,74.79
2018-08-24T06:21:21.382Z,73.76
2018-08-24T06:23:49.594Z,73.18
2018-08-24T06:26:18.048Z,72.06
2018-08-24T06:28:46.220Z,72.45
2018-08-24T06:31:14.327Z,71.31
2018-08-24T06:33:42.736Z,71.28
2018-08-24T06:36:10.850Z,70.66
2018-08-24T06:38:38.950Z,70.14
2018-08-24T06:41:07.075Z,70.40
2018-08-24T06:43:35.212Z,70.65
2018-08-24T06:46:03.367Z,70.06
2018-08-24T06:48:31.824Z,69.91
2018-08-24T06:51:00.032Z,69.90
2018-08-24T06:53:29.900Z,69.50
2018-08-24T06:55:58.383Z,70.30
2018-08-24T06:58:26.525Z,70.87
2018-08-24T07:00:54.651Z,70.69
2018-08-24T07:03:23.071Z,70.51
2018-08-24T07:05:51.257Z,71.41
2018-08-24T07:08:19.322Z,70.11
2018-08-24T07:10:47.480Z,70.23
2018-08-24T07:13:15.613Z,71.03
2018-08-24T07:15:43.754Z,70.33
2018-08-24T07:18:11.892Z,70.26
2018-08-24T07:20:40.333Z,69.46
2018-08-24T07:23:08.480Z,69.15
2018-08-24T07:25:36.612Z,69.16
2018-08-24T07:28:04.755Z,69.03
2018-08-24T07:30:32.874Z,67.02
2018-08-24T07:33:00.966Z,66.31
2018-08-24T07:35:29.090Z,67.32
2018-08-24T07:37:57.304Z,67.09
2018-08-24T07:40:25.922Z,68.27
2018-08-24T07:42:54.041Z,68.88
2018-08-24T07:45:22.151Z,67.28
2018-08-24T07:47:51.128Z,67.58
2018-08-24T07:50:19.240Z,67.64
2018-08-24T07:52:48.023Z,65.84
2018-08-24T07:55:17.180Z,65.00
2018-08-24T07:57:45.567Z,65.60
2018-08-24T08:00:13.688Z,65.69
2018-08-24T08:02:45.438Z,65.80
2018-08-24T08:05:13.628Z,63.33
2018-08-24T08:07:41.663Z,64.40
2018-08-24T08:10:09.860Z,64.51
2018-08-24T08:12:38.061Z,62.50
2018-08-24T08:15:06.582Z,63.95
2018-08-24T08:17:34.959Z,61.68
2018-08-24T08:20:03.163Z,61.09
2018-08-24T08:22:31.278Z,58.68
2018-08-24T08:24:59.391Z,58.89
2018-08-24T08:27:27.499Z,57.47
2018-08-24T08:29:58.783Z,58.19
2018-08-24T08:32:27.275Z,58.16
2018-08-24T08:34:55.396Z,59.48
2018-08-24T08:37:23.937Z,59.37
2018-08-24T08:39:52.611Z,58.92
2018-08-24T08:42:21.315Z,58.49
2018-08-24T08:44:49.415Z,59.17
2018-08-24T08:47:20.539Z,59.09
2018-08-24T08:49:49.431Z,60.69
2018-08-24T08:52:17.545Z,61.96
2018-08-24T08:54:45.681Z,63.45
2018-08-24T08:57:13.812Z,64.29
2018-08-24T08:59:42.300Z,64.68
2018-08-24T09:02:11.220Z,62.56
2018-08-24T09:04:40.540Z,61.82
2018-08-24T09:07:08.664Z,60.45
2018-08-24T09:09:37.025Z,59.65
2018-08-24T09:12:05.474Z,60.79
2018-08-24T09:14:33.576Z,62.28
2018-08-24T09:17:05.833Z,63.15
2018-08-24T09:19:39.392Z,63.55
2018-08-24T09:22:12.816Z,63.05
2018-08-24T09:24:46.208Z,64.03
2018-08-24T09:27:19.967Z,63.52
2018-08-24T09:29:48.099Z,63.24
2018-08-24T09:32:19.107Z,63.01
2018-08-24T09:34:47.207Z,61.57
2018-08-24T09:37:20.626Z,62.44
2018-08-24T09:39:48.759Z,61.75
2018-08-24T09:42:16.902Z,60.99
2018-08-24T09:44:45.381Z,59.89
2018-08-24T09:47:19.154Z,59.08
2018-08-24T09:49:47.492Z,59.10
2018-08-24T09:52:27.988Z,60.05
2018-08-24T09:54:56.642Z,60.89
2018-08-24T09:57:24.764Z,60.80
2018-08-24T09:59:53.030Z,61.57
2018-08-24T10:02:26.573Z,60.04
2018-08-24T10:05:00.068Z,59.62
2018-08-24T10:09:39.083Z,58.40
2018-08-24T10:12:07.210Z,58.23
2018-08-24T10:14:35.344Z,55.70
2018-08-24T10:17:03.475Z,56.33
2018-08-24T10:19:31.585Z,57.63
2018-08-24T10:22:00.620Z,68.60
2018-08-24T10:24:29.140Z,77.37
2018-08-24T10:26:57.944Z,82.61
2018-08-24T10:29:26.691Z,85.99
2018-08-24T10:31:54.667Z,86.09
2018-08-24T10:34:22.815Z,86.60
2018-08-24T10:36:52.091Z,89.04
2018-08-24T10:39:20.193Z,88.56
2018-08-24T10:41:49.115Z,88.62
2018-08-24T10:44:17.234Z,88.94
2018-08-24T10:46:45.993Z,90.32
2018-08-24T10:49:14.353Z,92.34
2018-08-24T10:51:42.420Z,90.84
2018-08-24T10:54:10.604Z,90.00
2018-08-24T10:56:39.276Z,92.27
2018-08-24T10:59:08.135Z,91.69
2018-08-24T11:01:36.330Z,91.29
2018-08-24T11:04:04.439Z,92.83
2018-08-24T11:06:33.696Z,92.09
2018-08-24T11:09:01.900Z,94.11
2018-08-24T11:11:30.895Z,94.34
2018-08-24T11:13:59.900Z,95.34
2018-08-24T11:16:28.006Z,95.27
2018-08-24T11:18:58.759Z,96.29
2018-08-24T11:21:26.871Z,96.48
2018-08-24T11:23:56.257Z,96.20
2018-08-24T11:26:25.475Z,96.94
2018-08-24T11:28:53.804Z,97.95
2018-08-24T11:31:21.902Z,97.56
2018-08-24T11:33:51.096Z,96.73
2018-08-24T11:36:19.570Z,98.27
2018-08-24T11:38:47.625Z,93.10
2018-08-24T11:41:15.722Z,92.06
2018-08-24T11:43:43.884Z,90.07
2018-08-24T11:46:33.040Z,91.97
2018-08-24T11:49:01.333Z,88.24
2018-08-24T11:51:29.441Z,86.90
2018-08-24T11:53:58.623Z,86.07
2018-08-24T11:56:26.714Z,83.01
2018-08-24T11:58:54.848Z,82.52
2018-08-24T12:01:23.712Z,83.12
2018-08-24T12:03:52.679Z,80.26
2018-08-24T12:06:20.784Z,78.27
2018-08-24T12:08:48.892Z,76.45
2018-08-24T12:11:16.987Z,77.74
2018-08-24T12:13:47.502Z,78.03
2018-08-24T12:16:15.867Z,77.71
2018-08-24T12:18:43.986Z,79.76
2018-08-24T12:21:12.125Z,79.83
2018-08-24T12:23:42.488Z,81.06
2018-08-24T12:26:11.155Z,80.64
2018-08-24T12:28:40.063Z,82.01
2018-08-24T12:31:12.880Z,80.11
2018-08-24T12:33:41.270Z,82.10
2018-08-24T12:36:16.725Z,82.97
2018-08-24T12:38:46.403Z,82.28
2018-08-24T12:41:14.985Z,80.61
2018-08-24T12:43:44.622Z,80.66
2018-08-24T12:46:13.408Z,79.35
2018-08-24T12:48:42.161Z,78.84
2018-08-24T12:51:10.990Z,79.25
2018-08-24T12:53:40.336Z,77.18
2018-08-24T12:59:09.520Z,75.53
2018-08-24T13:01:38.248Z,76.15
2018-08-24T13:04:09.232Z,75.91
2018-08-24T13:06:38.043Z,76.71
2018-08-24T13:09:08.081Z,75.98
2018-08-24T13:11:36.472Z,74.29
2018-08-24T13:14:05.123Z,74.20
2018-08-24T13:16:33.461Z,74.86
2018-08-24T13:19:03.216Z,72.02
2018-08-24T13:21:32.424Z,71.76
2018-08-24T13:24:00.988Z,72.58
2018-08-24T13:26:29.323Z,73.39
2018-08-24T13:29:01.622Z,71.96
2018-08-24T13:31:30.144Z,71.58
2018-08-24T13:33:59.318Z,71.85
2018-08-24T13:36:28.939Z,71.86
2018-08-24T13:38:57.351Z,70.29
2018-08-24T13:41:26.768Z,67.95
2018-08-24T13:43:55.153Z,69.08
2018-08-24T13:46:23.722Z,68.82
2018-08-24T13:48:52.466Z,67.62
2018-08-24T13:51:20.855Z,69.24
2018-08-24T13:53:50.091Z,69.52
2018-08-24T13:56:18.378Z,69.68
2018-08-24T13:58:46.956Z,68.76
2018-08-24T14:01:15.440Z,68.63
2018-08-24T14:03:44.220Z,67.30
2018-08-24T14:06:12.771Z,67.83
2018-08-24T14:08:41.541Z,67.40
2018-08-24T14:11:10.830Z,69.09
2018-08-24T14:13:40.701Z,68.80
2018-08-24T14:16:14.333Z,69.58
2018-08-24T14:18:43.708Z,70.72
2018-08-24T14:21:12.289Z,70.41
2018-08-24T14:23:40.931Z,71.56
2018-08-24T14:26:11.676Z,71.58
2018-08-24T14:28:40.008Z,71.69
2018-08-24T14:31:10.218Z,72.05
2018-08-24T14:33:38.648Z,71.92
2018-08-24T14:36:07.151Z,71.41
2018-08-24T14:38:37.448Z,71.95
2018-08-24T14:41:05.815Z,71.40
2018-08-24T14:43:34.366Z,71.02
2018-08-24T14:46:03.976Z,69.82
2018-08-24T14:48:32.742Z,69.55
2018-08-24T14:51:01.560Z,68.45
2018-08-24T14:53:30.310Z,67.41
2018-08-24T14:55:59.168Z,68.20
2018-08-24T14:58:27.342Z,68.05
2018-08-24T15:00:55.705Z,67.34
2018-08-24T15:03:23.955Z,68.06
2018-08-24T15:05:52.129Z,67.40
2018-08-24T15:08:20.345Z,68.06
2018-08-24T15:10:49.359Z,66.48
2018-08-24T15:13:17.591Z,65.17
2018-08-24T15:15:45.898Z,65.50
2018-08-24T15:18:14.029Z,66.38
2018-08-24T15:20:42.176Z,66.52
2018-08-24T15:23:10.415Z,67.25
2018-08-24T15:25:39.711Z,66.42
2018-08-24T15:28:16.077Z,65.07
2018-08-24T15:30:46.231Z,64.82
2018-08-24T15:33:15.901Z,64.63
2018-08-24T15:35:45.131Z,64.11
2018-08-24T15:38:18.041Z,63.89
2018-08-24T15:40:46.775Z,63.41
2018-08-24T15:43:14.997Z,63.51
2018-08-24T15:45:44.330Z,63.96
2018-08-24T15:48:12.459Z,64.74
2018-08-24T15:50:43.838Z,63.92
2018-08-24T15:53:12.251Z,65.60
2018-08-24T15:55:41.128Z,65.47
2018-08-24T15:58:10.105Z,64.85
2018-08-24T16:00:38.320Z,67.63
2018-08-24T16:03:06.472Z,66.60
2018-08-24T16:05:34.823Z,66.17
2018-08-24T16:08:04.862Z,66.12
2018-08-24T16:10:34.907Z,65.33
2018-08-24T16:18:12.508Z,66.54
2018-08-24T16:20:40.949Z,66.05
2018-08-24T16:23:09.237Z,66.21
2018-08-24T16:25:37.609Z,66.38
2018-08-24T16:28:06.176Z,67.29
2018-08-24T16:30:35.915Z,67.08
2018-08-24T16:33:05.010Z,67.20
2018-08-24T16:35:33.250Z,67.98
2018-08-24T16:38:01.665Z,67.83
2018-08-24T16:40:30.514Z,67.78
2018-08-24T16:42:58.814Z,68.37
2018-08-24T16:45:27.010Z,68.50
2018-08-24T16:47:55.179Z,68.33
2018-08-24T16:50:24.036Z,66.72
2018-08-24T16:52:53.348Z,67.69
2018-08-24T16:55:22.024Z,67.23
2018-08-24T17:00:42.024Z,68.85
2018-08-24T17:03:10.234Z,68.97
2018-08-24T17:05:38.667Z,68.20
2018-08-24T17:08:09.022Z,69.18
2018-08-24T17:10:37.382Z,68.75
2018-08-24T17:13:05.911Z,69.44
2018-08-24T17:15:34.443Z,69.15
2018-08-24T17:18:02.645Z,69.71
2018-08-24T17:20:38.633Z,69.02
2018-08-24T17:23:08.267Z,69.28
2018-08-24T17:25:37.451Z,69.33
2018-08-24T17:28:07.937Z,68.74
2018-08-24T17:30:44.742Z,68.65
2018-08-24T17:33:14.454Z,69.87
2018-08-24T17:35:42.951Z,70.18
2018-08-24T17:38:11.371Z,70.68
2018-08-24T17:40:39.617Z,69.82
2018-08-24T17:43:08.049Z,68.75
2018-08-24T17:45:37.336Z,69.67
2018-08-24T17:48:06.113Z,69.51
2018-08-24T17:50:44.016Z,69.46
2018-08-24T17:53:12.809Z,69.57
2018-08-24T17:55:41.133Z,69.38
2018-08-24T17:58:09.636Z,69.70
2018-08-24T18:00:38.876Z,69.26
2018-08-24T18:03:07.580Z,70.39
2018-08-24T18:05:35.774Z,70.45
2018-08-24T18:08:04.002Z,71.01
2018-08-24T18:10:39.089Z,70.89
2018-08-24T18:13:07.426Z,70.91
2018-08-24T18:15:35.984Z,71.71
2018-08-24T18:18:05.282Z,71.24
2018-08-24T18:20:35.117Z,71.30
2018-08-24T18:23:03.504Z,70.93
2018-08-24T18:25:32.645Z,71.22
2018-08-24T18:28:00.919Z,72.20
2018-08-24T18:30:29.711Z,71.46
2018-08-24T18:32:58.084Z,71.44
2018-08-24T18:35:26.732Z,71.13
2018-08-24T18:37:55.716Z,71.36
2018-08-24T18:40:24.401Z,71.63
2018-08-24T18:42:52.813Z,71.21
2018-08-24T18:45:21.235Z,71.64
2018-08-24T18:47:49.579Z,71.86
2018-08-24T18:50:18.130Z,72.74
2018-08-24T18:52:48.508Z,72.44
2018-08-24T18:55:16.849Z,72.04
2018-08-24T18:57:45.442Z,72.63
2018-08-24T19:03:07.839Z,72.69
2018-08-24T19:05:36.852Z,72.50
2018-08-24T19:08:10.272Z,72.19
2018-08-24T19:13:46.514Z,71.57
2018-08-24T19:16:15.248Z,72.35
2018-08-24T19:18:48.922Z,72.74
2018-08-24T19:21:22.627Z,72.04
2018-08-24T19:23:57.814Z,72.52
2018-08-24T19:26:27.351Z,72.32
2018-08-24T19:29:01.172Z,72.99
2018-08-24T19:31:29.756Z,72.90
2018-08-24T19:33:58.236Z,72.78
2018-08-24T19:49:54.552Z,73.25
2018-08-24T19:52:22.934Z,73.65
2018-08-24T19:54:58.179Z,73.88
2018-08-24T20:32:17.786Z,71.50
2018-08-24T20:34:46.830Z,71.86
2018-08-24T20:37:16.088Z,70.67
2018-08-24T20:39:44.679Z,70.73
2018-08-24T20:42:13.507Z,70.54
2018-08-24T20:44:42.937Z,69.03
2018-08-24T20:50:07.075Z,69.28
2018-08-24T20:52:36.270Z,69.37
2018-08-24T20:55:05.089Z,70.10
2018-08-24T20:57:34.105Z,69.55
2018-08-24T21:00:02.632Z,70.15
2018-08-24T21:02:34.461Z,69.63
2018-08-24T21:05:02.981Z,69.59
2018-08-24T21:07:31.623Z,69.71
2018-08-24T21:10:00.091Z,69.82
2018-08-24T21:12:28.824Z,69.55
2018-08-24T21:14:57.370Z,69.47
2018-08-24T21:17:25.888Z,69.87
2018-08-24T21:19:55.424Z,67.30
2018-08-24T21:22:24.166Z,66.44
2018-08-24T21:24:53.138Z,66.29
2018-08-24T22:02:37.819Z,72.08
2018-08-24T22:05:06.546Z,71.75
2018-08-24T22:07:34.920Z,72.04
2018-08-24T22:12:49.517Z,71.59
2018-08-24T22:15:17.844Z,70.51
2018-08-24T22:17:46.499Z,70.47
2018-08-24T22:20:15.296Z,69.37
2018-08-24T22:25:25.924Z,68.42
2018-08-24T22:27:55.240Z,67.83
2018-08-24T22:33:05.154Z,65.53
2018-08-24T22:35:33.828Z,65.43
2018-08-24T22:38:02.676Z,64.96
2018-08-24T22:40:31.425Z,63.94
2018-08-24T22:43:00.228Z,63.49
2018-08-24T22:45:28.917Z,63.84
2018-08-24T22:50:51.730Z,63.14
2018-08-24T22:56:07.868Z,62.68
2018-08-24T22:58:36.738Z,62.31
2018-08-24T23:01:05.453Z,62.43
2018-08-24T23:03:34.285Z,61.79
2018-08-24T23:06:04.410Z,61.20
2018-08-24T23:08:33.255Z,62.47
2018-08-24T23:11:01.945Z,62.46
2018-08-24T23:13:30.611Z,61.71
2018-08-24T23:15:59.178Z,61.40
2018-08-24T23:18:28.194Z,61.66
2018-08-24T23:20:56.990Z,62.03
2018-08-24T23:23:29.633Z,62.36
2018-08-24T23:25:58.774Z,61.91
2018-08-24T23:31:08.059Z,62.35
2018-08-24T23:33:36.941Z,62.63
2018-08-24T23:38:44.096Z,63.41
2018-08-24T23:41:12.711Z,63.80
2018-08-24T23:43:41.035Z,64.36
2018-08-24T23:46:09.687Z,63.97
2018-08-24T23:48:37.975Z,63.33
2018-08-24T23:51:06.781Z,65.72
2018-08-24T23:53:35.231Z,63.64
2018-08-24T23:56:03.737Z,64.96
2018-08-24T23:58:32.126Z,64.06
